WKT62 EGNE-EGHQ
Flight info
| Callsign | WKT62 |
|---|---|
| Flight time | 2h 23m |
| Altitude | 10000 |
| Route | ODPIX DCT ELVOS DCT SAPCO DCT ADMEX Y321 EXARO N514 ADKIK DCT BATSU DCT DAWLY DCT STAY1/0200 FL085 501609N0050730W/N0163F085 501900N0050233W/N0161F085 501925N0050253W 501634N0050750W 501658N0050810W/N0163F085 501950N0050312W/N0161F085 502015N0050331W 501723N0050830W 501748N0050851W/N0163F085 502040N0050351W/N0161F085 502106N0050410W 501813N0050911W DCT 501837N0050931W 502146N0050403W 502231N0050348W 501902N0050951W 501927N0051011W DCT 501958N0050917W DCT |
| Aircraft | DA62/L-SDFGRY/C |
Departure
| Time | 2026-04-28 18:37 |
|---|---|
| Airport | Retford Gamston Airport (EGNE) |
Arrival
| Time | 2026-04-28 21:00 |
|---|---|
| Airport | Cornwall Airport Newquay (EGHQ) |
| Time | Latitude | Longitude | Altitude | Speed | Heading |
|---|---|---|---|---|---|
| 2026-04-28 18:25 | 53.28047 | -0.94934 | 87 ft | 0 kts | 113° |
| 2026-04-28 18:33 | 53.28047 | -0.94929 | 86 ft | 2 kts | 90° |
| 2026-04-28 18:33 | 53.28048 | -0.94922 | 86 ft | 0 kts | 53° |
| 2026-04-28 18:34 | 53.28063 | -0.94934 | 88 ft | 0 kts | 339° |
| 2026-04-28 18:34 | 53.28065 | -0.94935 | 88 ft | 2 kts | 352° |
| 2026-04-28 18:34 | 53.28148 | -0.94868 | 86 ft | 8 kts | 23° |
| 2026-04-28 18:35 | 53.28177 | -0.94851 | 86 ft | 7 kts | 17° |
| 2026-04-28 18:35 | 53.28217 | -0.94866 | 86 ft | 6 kts | 305° |
| 2026-04-28 18:35 | 53.28245 | -0.94960 | 84 ft | 10 kts | 294° |
| 2026-04-28 18:35 | 53.28233 | -0.95004 | 84 ft | 5 kts | 200° |
| 2026-04-28 18:36 | 53.27982 | -0.95191 | 89 ft | 71 kts | 205° |
| 2026-04-28 18:36 | 53.27591 | -0.95505 | 92 ft | 103 kts | 204° |
| 2026-04-28 18:36 | 53.27259 | -0.95738 | 142 ft | 113 kts | 200° |
| 2026-04-28 18:36 | 53.26460 | -0.96121 | 417 ft | 118 kts | 189° |
| 2026-04-28 18:37 | 53.25917 | -0.96323 | 557 ft | 122 kts | 186° |
| 2026-04-28 18:37 | 53.25107 | -0.96713 | 820 ft | 123 kts | 189° |
| 2026-04-28 18:37 | 53.24172 | -0.97120 | 962 ft | 137 kts | 186° |
| 2026-04-28 18:37 | 53.23474 | -0.97345 | 1188 ft | 134 kts | 186° |
| 2026-04-28 18:38 | 53.21708 | -0.98255 | 1753 ft | 131 kts | 199° |
| 2026-04-28 18:38 | 53.20754 | -0.98900 | 2094 ft | 133 kts | 197° |
| 2026-04-28 18:38 | 53.19944 | -0.99881 | 2412 ft | 139 kts | 220° |
| 2026-04-28 18:39 | 53.19195 | -1.00862 | 2675 ft | 144 kts | 214° |
| 2026-04-28 18:39 | 53.18341 | -1.01995 | 2956 ft | 150 kts | 215° |
| 2026-04-28 18:39 | 53.18050 | -1.02386 | 3044 ft | 152 kts | 219° |
| 2026-04-28 18:39 | 53.16817 | -1.04056 | 3429 ft | 157 kts | 216° |
| 2026-04-28 18:40 | 53.16035 | -1.05114 | 3669 ft | 160 kts | 215° |
| 2026-04-28 18:40 | 53.15095 | -1.06385 | 3942 ft | 162 kts | 216° |
| 2026-04-28 18:40 | 53.14109 | -1.07734 | 4223 ft | 163 kts | 214° |
| 2026-04-28 18:40 | 53.13525 | -1.08511 | 4390 ft | 164 kts | 214° |
| 2026-04-28 18:41 | 53.12317 | -1.10140 | 4744 ft | 164 kts | 214° |
| 2026-04-28 18:41 | 53.11654 | -1.11038 | 4939 ft | 165 kts | 213° |
| 2026-04-28 18:41 | 53.10563 | -1.12520 | 5261 ft | 165 kts | 212° |
| 2026-04-28 18:41 | 53.09635 | -1.13742 | 5512 ft | 167 kts | 214° |
| 2026-04-28 18:42 | 53.08745 | -1.14956 | 5768 ft | 167 kts | 213° |
| 2026-04-28 18:42 | 53.08140 | -1.15775 | 5942 ft | 167 kts | 214° |
| 2026-04-28 18:42 | 53.07252 | -1.16973 | 6201 ft | 168 kts | 213° |
| 2026-04-28 18:42 | 53.07010 | -1.17299 | 6275 ft | 168 kts | 213° |
| 2026-04-28 18:43 | 53.06099 | -1.18524 | 6533 ft | 168 kts | 213° |
| 2026-04-28 18:43 | 53.05379 | -1.19493 | 6732 ft | 168 kts | 213° |
| 2026-04-28 18:43 | 53.04550 | -1.20608 | 6945 ft | 168 kts | 213° |
| 2026-04-28 18:43 | 53.03578 | -1.21914 | 7205 ft | 169 kts | 213° |
| 2026-04-28 18:44 | 53.02961 | -1.22742 | 7373 ft | 169 kts | 213° |
| 2026-04-28 18:44 | 53.00977 | -1.25406 | 7911 ft | 170 kts | 213° |
| 2026-04-28 18:44 | 52.99859 | -1.26477 | 8198 ft | 162 kts | 187° |
| 2026-04-28 18:45 | 52.99179 | -1.26675 | 8355 ft | 157 kts | 175° |
| 2026-04-28 18:45 | 52.98064 | -1.26816 | 8616 ft | 157 kts | 175° |
| 2026-04-28 18:45 | 52.96627 | -1.27020 | 8958 ft | 157 kts | 175° |
| 2026-04-28 18:45 | 52.95862 | -1.27125 | 9136 ft | 157 kts | 175° |
| 2026-04-28 18:46 | 52.94724 | -1.27284 | 9407 ft | 157 kts | 175° |
| 2026-04-28 18:46 | 52.93570 | -1.27444 | 9688 ft | 157 kts | 175° |
| 2026-04-28 18:46 | 52.92454 | -1.27599 | 9958 ft | 158 kts | 175° |
| 2026-04-28 18:46 | 52.91391 | -1.27746 | 10214 ft | 158 kts | 175° |
| 2026-04-28 18:47 | 52.90269 | -1.27900 | 10370 ft | 166 kts | 175° |
| 2026-04-28 18:47 | 52.88937 | -1.28077 | 10375 ft | 181 kts | 176° |
| 2026-04-28 18:47 | 52.87772 | -1.28240 | 10379 ft | 189 kts | 176° |
| 2026-04-28 18:47 | 52.86687 | -1.28393 | 10382 ft | 194 kts | 176° |
| 2026-04-28 18:48 | 52.84995 | -1.28631 | 10384 ft | 199 kts | 177° |
| 2026-04-28 18:48 | 52.83569 | -1.28829 | 10382 ft | 203 kts | 177° |
| 2026-04-28 18:48 | 52.82142 | -1.29027 | 10382 ft | 205 kts | 177° |
| 2026-04-28 18:48 | 52.80711 | -1.29226 | 10383 ft | 205 kts | 177° |
| 2026-04-28 18:49 | 52.79250 | -1.29428 | 10383 ft | 206 kts | 177° |
| 2026-04-28 18:49 | 52.78779 | -1.29493 | 10382 ft | 207 kts | 177° |
| 2026-04-28 18:49 | 52.76378 | -1.29824 | 10383 ft | 207 kts | 177° |
| 2026-04-28 18:49 | 52.75406 | -1.29958 | 10389 ft | 208 kts | 177° |
| 2026-04-28 18:50 | 52.73965 | -1.30156 | 10384 ft | 208 kts | 177° |
| 2026-04-28 18:50 | 52.72486 | -1.30360 | 10307 ft | 208 kts | 177° |
| 2026-04-28 18:50 | 52.71033 | -1.30560 | 10301 ft | 208 kts | 177° |
| 2026-04-28 18:50 | 52.69509 | -1.30844 | 10300 ft | 210 kts | 183° |
| 2026-04-28 18:51 | 52.68108 | -1.31296 | 10297 ft | 210 kts | 184° |
| 2026-04-28 18:51 | 52.66642 | -1.31762 | 10297 ft | 209 kts | 183° |
| 2026-04-28 18:51 | 52.65208 | -1.32209 | 10298 ft | 209 kts | 184° |
| 2026-04-28 18:51 | 52.63482 | -1.32747 | 10298 ft | 209 kts | 183° |
| 2026-04-28 18:52 | 52.62286 | -1.33121 | 10301 ft | 209 kts | 184° |
| 2026-04-28 18:52 | 52.60915 | -1.33550 | 10300 ft | 209 kts | 184° |
| 2026-04-28 18:52 | 52.59461 | -1.34004 | 10301 ft | 209 kts | 183° |
| 2026-04-28 18:52 | 52.57926 | -1.34483 | 10301 ft | 209 kts | 184° |
| 2026-04-28 18:53 | 52.56555 | -1.34911 | 10297 ft | 209 kts | 184° |
| 2026-04-28 18:53 | 52.55121 | -1.35358 | 10298 ft | 209 kts | 184° |
| 2026-04-28 18:53 | 52.54154 | -1.35668 | 10297 ft | 206 kts | 185° |
| 2026-04-28 18:53 | 52.52334 | -1.36703 | 10297 ft | 201 kts | 193° |
| 2026-04-28 18:54 | 52.51033 | -1.37472 | 10311 ft | 196 kts | 192° |
| 2026-04-28 18:54 | 52.49751 | -1.38224 | 10317 ft | 193 kts | 192° |
| 2026-04-28 18:54 | 52.48962 | -1.38687 | 10315 ft | 191 kts | 192° |
| 2026-04-28 18:54 | 52.47803 | -1.39368 | 10319 ft | 190 kts | 192° |
| 2026-04-28 18:55 | 52.46527 | -1.40120 | 10313 ft | 189 kts | 192° |
| 2026-04-28 18:55 | 52.45555 | -1.40691 | 10317 ft | 189 kts | 192° |
| 2026-04-28 18:55 | 52.44033 | -1.41586 | 10320 ft | 188 kts | 192° |
| 2026-04-28 18:55 | 52.42821 | -1.42298 | 10357 ft | 187 kts | 192° |
| 2026-04-28 18:56 | 52.41481 | -1.43088 | 10354 ft | 187 kts | 192° |
| 2026-04-28 18:56 | 52.40229 | -1.43834 | 10353 ft | 187 kts | 192° |
| 2026-04-28 18:56 | 52.38935 | -1.44600 | 10372 ft | 187 kts | 192° |
| 2026-04-28 18:56 | 52.37734 | -1.45312 | 10374 ft | 187 kts | 192° |
| 2026-04-28 18:57 | 52.36488 | -1.46053 | 10370 ft | 186 kts | 192° |
| 2026-04-28 18:57 | 52.35507 | -1.46638 | 10366 ft | 187 kts | 192° |
| 2026-04-28 18:57 | 52.34278 | -1.46888 | 10360 ft | 172 kts | 159° |
| 2026-04-28 18:57 | 52.33643 | -1.46544 | 10364 ft | 168 kts | 151° |
| 2026-04-28 18:58 | 52.32043 | -1.45987 | 10373 ft | 176 kts | 167° |
| 2026-04-28 18:58 | 52.31362 | -1.45927 | 10369 ft | 177 kts | 169° |
| 2026-04-28 18:58 | 52.30238 | -1.45503 | 10371 ft | 165 kts | 143° |
| 2026-04-28 18:58 | 52.28784 | -1.44260 | 10377 ft | 170 kts | 154° |
| 2026-04-28 18:59 | 52.28040 | -1.43949 | 10372 ft | 172 kts | 160° |
| 2026-04-28 18:59 | 52.26705 | -1.43564 | 10382 ft | 173 kts | 162° |
| 2026-04-28 18:59 | 52.25586 | -1.43261 | 10388 ft | 173 kts | 162° |
| 2026-04-28 18:59 | 52.24152 | -1.42858 | 10386 ft | 173 kts | 161° |
| 2026-04-28 19:00 | 52.23184 | -1.42584 | 10368 ft | 173 kts | 162° |
| 2026-04-28 19:00 | 52.22150 | -1.42290 | 10379 ft | 174 kts | 161° |
| 2026-04-28 19:00 | 52.20934 | -1.41946 | 10378 ft | 174 kts | 161° |
| 2026-04-28 19:00 | 52.19759 | -1.41614 | 10386 ft | 174 kts | 161° |
| 2026-04-28 19:01 | 52.18735 | -1.41325 | 10383 ft | 173 kts | 162° |
| 2026-04-28 19:01 | 52.17639 | -1.41016 | 10381 ft | 174 kts | 162° |
| 2026-04-28 19:01 | 52.16421 | -1.40671 | 10384 ft | 174 kts | 162° |
| 2026-04-28 19:01 | 52.15253 | -1.40343 | 10382 ft | 174 kts | 161° |
| 2026-04-28 19:02 | 52.14062 | -1.40005 | 10380 ft | 174 kts | 162° |
| 2026-04-28 19:02 | 52.12867 | -1.39668 | 10387 ft | 174 kts | 162° |
| 2026-04-28 19:02 | 52.11677 | -1.39334 | 10382 ft | 174 kts | 162° |
| 2026-04-28 19:02 | 52.10392 | -1.38972 | 10380 ft | 174 kts | 162° |
| 2026-04-28 19:03 | 52.09438 | -1.38703 | 10379 ft | 174 kts | 162° |
| 2026-04-28 19:03 | 52.08101 | -1.38327 | 10379 ft | 174 kts | 162° |
| 2026-04-28 19:03 | 52.06946 | -1.38004 | 10374 ft | 174 kts | 161° |
| 2026-04-28 19:03 | 52.05721 | -1.37659 | 10373 ft | 173 kts | 162° |
| 2026-04-28 19:04 | 52.04473 | -1.37309 | 10368 ft | 173 kts | 162° |
| 2026-04-28 19:04 | 52.03526 | -1.37043 | 10372 ft | 173 kts | 161° |
| 2026-04-28 19:04 | 52.02402 | -1.36727 | 10333 ft | 174 kts | 162° |
| 2026-04-28 19:04 | 52.01031 | -1.36342 | 10325 ft | 174 kts | 162° |
| 2026-04-28 19:05 | 51.99839 | -1.36009 | 10328 ft | 174 kts | 162° |
| 2026-04-28 19:05 | 51.98651 | -1.35676 | 10332 ft | 174 kts | 162° |
| 2026-04-28 19:05 | 51.97468 | -1.35345 | 10326 ft | 174 kts | 162° |
| 2026-04-28 19:05 | 51.96276 | -1.35011 | 10326 ft | 174 kts | 162° |
| 2026-04-28 19:06 | 51.95298 | -1.34738 | 10323 ft | 174 kts | 162° |
| 2026-04-28 19:06 | 51.94672 | -1.34563 | 10323 ft | 174 kts | 162° |
| 2026-04-28 19:06 | 51.93038 | -1.34107 | 10328 ft | 174 kts | 162° |
| 2026-04-28 19:06 | 51.92328 | -1.33908 | 10325 ft | 173 kts | 162° |
| 2026-04-28 19:07 | 51.90722 | -1.33461 | 10328 ft | 172 kts | 161° |
| 2026-04-28 19:07 | 51.89776 | -1.33196 | 10332 ft | 173 kts | 162° |
| 2026-04-28 19:07 | 51.88421 | -1.32818 | 10323 ft | 173 kts | 162° |
| 2026-04-28 19:07 | 51.87250 | -1.32492 | 10329 ft | 173 kts | 162° |
| 2026-04-28 19:08 | 51.86148 | -1.32185 | 10321 ft | 174 kts | 162° |
| 2026-04-28 19:08 | 51.85030 | -1.31874 | 10320 ft | 174 kts | 162° |
| 2026-04-28 19:08 | 51.83681 | -1.31500 | 10325 ft | 173 kts | 162° |
| 2026-04-28 19:08 | 51.82377 | -1.31137 | 10328 ft | 173 kts | 162° |
| 2026-04-28 19:09 | 51.81581 | -1.30915 | 10323 ft | 173 kts | 162° |
| 2026-04-28 19:09 | 51.81079 | -1.30776 | 10329 ft | 173 kts | 162° |
| 2026-04-28 19:09 | 51.78918 | -1.30176 | 10328 ft | 173 kts | 161° |
| 2026-04-28 19:09 | 51.77909 | -1.29896 | 10327 ft | 172 kts | 161° |
| 2026-04-28 19:10 | 51.76768 | -1.29580 | 10324 ft | 172 kts | 161° |
| 2026-04-28 19:10 | 51.75640 | -1.29267 | 10325 ft | 172 kts | 161° |
| 2026-04-28 19:10 | 51.74459 | -1.28940 | 10325 ft | 172 kts | 161° |
| 2026-04-28 19:10 | 51.73277 | -1.28612 | 10324 ft | 172 kts | 161° |
| 2026-04-28 19:11 | 51.72097 | -1.28286 | 10323 ft | 173 kts | 161° |
| 2026-04-28 19:11 | 51.70887 | -1.27951 | 10321 ft | 173 kts | 161° |
| 2026-04-28 19:11 | 51.69704 | -1.27624 | 10296 ft | 173 kts | 161° |
| 2026-04-28 19:11 | 51.68521 | -1.27298 | 10296 ft | 172 kts | 161° |
| 2026-04-28 19:12 | 51.67368 | -1.26979 | 10296 ft | 172 kts | 161° |
| 2026-04-28 19:12 | 51.66281 | -1.26679 | 10296 ft | 171 kts | 161° |
| 2026-04-28 19:12 | 51.65065 | -1.26344 | 10296 ft | 171 kts | 161° |
| 2026-04-28 19:12 | 51.63888 | -1.26020 | 10297 ft | 171 kts | 161° |
| 2026-04-28 19:13 | 51.62726 | -1.25699 | 10297 ft | 171 kts | 161° |
| 2026-04-28 19:13 | 51.62271 | -1.25573 | 10297 ft | 171 kts | 161° |
| 2026-04-28 19:13 | 51.60372 | -1.25051 | 10297 ft | 172 kts | 161° |
| 2026-04-28 19:14 | 51.57826 | -1.24351 | 10294 ft | 172 kts | 161° |
| 2026-04-28 19:14 | 51.56709 | -1.24043 | 10307 ft | 172 kts | 161° |
| 2026-04-28 19:14 | 51.55552 | -1.23725 | 10300 ft | 172 kts | 162° |
| 2026-04-28 19:14 | 51.54371 | -1.23401 | 10299 ft | 172 kts | 162° |
| 2026-04-28 19:15 | 51.53190 | -1.23077 | 10298 ft | 172 kts | 161° |
| 2026-04-28 19:15 | 51.52194 | -1.22804 | 10297 ft | 172 kts | 162° |
| 2026-04-28 19:15 | 51.51176 | -1.22525 | 10296 ft | 172 kts | 161° |
| 2026-04-28 19:15 | 51.50382 | -1.22308 | 10296 ft | 172 kts | 162° |
| 2026-04-28 19:16 | 51.48509 | -1.22173 | 10290 ft | 182 kts | 182° |
| 2026-04-28 19:16 | 51.47918 | -1.22376 | 10290 ft | 182 kts | 184° |
| 2026-04-28 19:16 | 51.46501 | -1.22855 | 10290 ft | 182 kts | 183° |
| 2026-04-28 19:16 | 51.44808 | -1.23410 | 10290 ft | 183 kts | 183° |
| 2026-04-28 19:17 | 51.43489 | -1.23845 | 10291 ft | 183 kts | 183° |
| 2026-04-28 19:17 | 51.42614 | -1.24134 | 10287 ft | 183 kts | 183° |
| 2026-04-28 19:17 | 51.41065 | -1.24646 | 10285 ft | 183 kts | 183° |
| 2026-04-28 19:17 | 51.40391 | -1.24869 | 10284 ft | 183 kts | 183° |
| 2026-04-28 19:18 | 51.38709 | -1.25423 | 10283 ft | 183 kts | 183° |
| 2026-04-28 19:18 | 51.37871 | -1.25699 | 10282 ft | 183 kts | 183° |
| 2026-04-28 19:18 | 51.36336 | -1.26205 | 10280 ft | 182 kts | 183° |
| 2026-04-28 19:18 | 51.35888 | -1.26353 | 10280 ft | 182 kts | 183° |
| 2026-04-28 19:19 | 51.34096 | -1.26942 | 10274 ft | 182 kts | 183° |
| 2026-04-28 19:19 | 51.32808 | -1.27366 | 10278 ft | 183 kts | 183° |
| 2026-04-28 19:19 | 51.31612 | -1.27759 | 10256 ft | 183 kts | 184° |
| 2026-04-28 19:19 | 51.30363 | -1.28170 | 10253 ft | 182 kts | 184° |
| 2026-04-28 19:20 | 51.29128 | -1.28575 | 10253 ft | 182 kts | 183° |
| 2026-04-28 19:20 | 51.27847 | -1.28995 | 10252 ft | 181 kts | 184° |
| 2026-04-28 19:20 | 51.26425 | -1.29462 | 10253 ft | 182 kts | 183° |
| 2026-04-28 19:20 | 51.25586 | -1.29737 | 10252 ft | 182 kts | 183° |
| 2026-04-28 19:21 | 51.24312 | -1.30154 | 10255 ft | 181 kts | 184° |
| 2026-04-28 19:21 | 51.22980 | -1.30590 | 10250 ft | 181 kts | 183° |
| 2026-04-28 19:21 | 51.21752 | -1.30992 | 10251 ft | 182 kts | 183° |
| 2026-04-28 19:21 | 51.20508 | -1.31399 | 10255 ft | 182 kts | 183° |
| 2026-04-28 19:22 | 51.19167 | -1.31837 | 10252 ft | 181 kts | 183° |
| 2026-04-28 19:22 | 51.18813 | -1.31953 | 10250 ft | 181 kts | 183° |
| 2026-04-28 19:22 | 51.16669 | -1.32653 | 10249 ft | 181 kts | 183° |
| 2026-04-28 19:22 | 51.15454 | -1.33050 | 10250 ft | 181 kts | 183° |
| 2026-04-28 19:23 | 51.14222 | -1.33452 | 10247 ft | 181 kts | 184° |
| 2026-04-28 19:23 | 51.12885 | -1.33886 | 10250 ft | 181 kts | 184° |
| 2026-04-28 19:23 | 51.11614 | -1.34301 | 10252 ft | 181 kts | 184° |
| 2026-04-28 19:23 | 51.10457 | -1.34678 | 10248 ft | 181 kts | 184° |
| 2026-04-28 19:24 | 51.09412 | -1.35018 | 10227 ft | 181 kts | 183° |
| 2026-04-28 19:24 | 51.08158 | -1.35426 | 10223 ft | 181 kts | 183° |
| 2026-04-28 19:24 | 51.06919 | -1.35829 | 10222 ft | 181 kts | 183° |
| 2026-04-28 19:24 | 51.05681 | -1.36230 | 10219 ft | 181 kts | 184° |
| 2026-04-28 19:25 | 51.04411 | -1.36644 | 10215 ft | 181 kts | 183° |
| 2026-04-28 19:25 | 51.03529 | -1.36930 | 10221 ft | 181 kts | 183° |
| 2026-04-28 19:25 | 51.02324 | -1.37321 | 10219 ft | 182 kts | 184° |
| 2026-04-28 19:25 | 51.01137 | -1.38077 | 10210 ft | 190 kts | 205° |
| 2026-04-28 19:26 | 51.00136 | -1.39513 | 10211 ft | 198 kts | 227° |
| 2026-04-28 19:26 | 50.99504 | -1.41467 | 10204 ft | 203 kts | 250° |
| 2026-04-28 19:26 | 50.99141 | -1.43639 | 10241 ft | 203 kts | 253° |
| 2026-04-28 19:26 | 50.98775 | -1.45807 | 10239 ft | 204 kts | 252° |
| 2026-04-28 19:27 | 50.98404 | -1.47982 | 10235 ft | 204 kts | 252° |
| 2026-04-28 19:27 | 50.98033 | -1.50157 | 10239 ft | 204 kts | 252° |
| 2026-04-28 19:27 | 50.97661 | -1.52333 | 10241 ft | 204 kts | 252° |
| 2026-04-28 19:27 | 50.97289 | -1.54506 | 10242 ft | 204 kts | 252° |
| 2026-04-28 19:28 | 50.96933 | -1.56594 | 10238 ft | 204 kts | 252° |
| 2026-04-28 19:28 | 50.96562 | -1.58762 | 10239 ft | 204 kts | 252° |
| 2026-04-28 19:28 | 50.96189 | -1.60935 | 10241 ft | 204 kts | 252° |
| 2026-04-28 19:28 | 50.95817 | -1.63098 | 10242 ft | 204 kts | 252° |
| 2026-04-28 19:29 | 50.95438 | -1.65302 | 10236 ft | 204 kts | 252° |
| 2026-04-28 19:29 | 50.95192 | -1.66732 | 10238 ft | 204 kts | 252° |
| 2026-04-28 19:29 | 50.94697 | -1.69609 | 10245 ft | 204 kts | 252° |
| 2026-04-28 19:29 | 50.94323 | -1.71773 | 10243 ft | 204 kts | 252° |
| 2026-04-28 19:30 | 50.93950 | -1.73933 | 10238 ft | 203 kts | 252° |
| 2026-04-28 19:30 | 50.93576 | -1.76093 | 10236 ft | 203 kts | 252° |
| 2026-04-28 19:30 | 50.93202 | -1.78252 | 10250 ft | 203 kts | 252° |
| 2026-04-28 19:30 | 50.92827 | -1.80416 | 10241 ft | 204 kts | 252° |
| 2026-04-28 19:31 | 50.92450 | -1.82583 | 10240 ft | 204 kts | 252° |
| 2026-04-28 19:31 | 50.92073 | -1.84752 | 10244 ft | 204 kts | 252° |
| 2026-04-28 19:31 | 50.91697 | -1.86915 | 10239 ft | 204 kts | 252° |
| 2026-04-28 19:31 | 50.91320 | -1.89081 | 10251 ft | 204 kts | 253° |
| 2026-04-28 19:32 | 50.90940 | -1.91258 | 10251 ft | 205 kts | 253° |
| 2026-04-28 19:32 | 50.90558 | -1.93444 | 10250 ft | 206 kts | 253° |
| 2026-04-28 19:32 | 50.90175 | -1.95633 | 10254 ft | 206 kts | 253° |
| 2026-04-28 19:32 | 50.89791 | -1.97824 | 10250 ft | 207 kts | 253° |
| 2026-04-28 19:33 | 50.89406 | -2.00019 | 10250 ft | 207 kts | 253° |
| 2026-04-28 19:33 | 50.89019 | -2.02226 | 10252 ft | 207 kts | 253° |
| 2026-04-28 19:33 | 50.88632 | -2.04425 | 10253 ft | 208 kts | 253° |
| 2026-04-28 19:33 | 50.88245 | -2.06626 | 10255 ft | 208 kts | 253° |
| 2026-04-28 19:34 | 50.87857 | -2.08827 | 10259 ft | 207 kts | 253° |
| 2026-04-28 19:34 | 50.87470 | -2.11019 | 10258 ft | 207 kts | 253° |
| 2026-04-28 19:34 | 50.87080 | -2.13225 | 10253 ft | 207 kts | 253° |
| 2026-04-28 19:34 | 50.86692 | -2.15418 | 10259 ft | 207 kts | 253° |
| 2026-04-28 19:35 | 50.86304 | -2.17608 | 10256 ft | 207 kts | 253° |
| 2026-04-28 19:35 | 50.85916 | -2.19798 | 10259 ft | 207 kts | 253° |
| 2026-04-28 19:35 | 50.85526 | -2.21996 | 10251 ft | 208 kts | 252° |
| 2026-04-28 19:35 | 50.85136 | -2.24190 | 10248 ft | 207 kts | 252° |
| 2026-04-28 19:36 | 50.84745 | -2.26386 | 10252 ft | 207 kts | 252° |
| 2026-04-28 19:36 | 50.84355 | -2.28577 | 10252 ft | 207 kts | 252° |
| 2026-04-28 19:36 | 50.83978 | -2.30691 | 10250 ft | 207 kts | 252° |
| 2026-04-28 19:36 | 50.83574 | -2.32951 | 10250 ft | 207 kts | 252° |
| 2026-04-28 19:37 | 50.83185 | -2.35128 | 10249 ft | 207 kts | 254° |
| 2026-04-28 19:37 | 50.82925 | -2.36584 | 10248 ft | 207 kts | 253° |
| 2026-04-28 19:37 | 50.82400 | -2.39508 | 10247 ft | 207 kts | 253° |
| 2026-04-28 19:37 | 50.82005 | -2.41711 | 10247 ft | 208 kts | 253° |
| 2026-04-28 19:38 | 50.81616 | -2.43872 | 10249 ft | 207 kts | 253° |
| 2026-04-28 19:38 | 50.81216 | -2.46096 | 10246 ft | 208 kts | 253° |
| 2026-04-28 19:38 | 50.80821 | -2.48290 | 10249 ft | 207 kts | 253° |
| 2026-04-28 19:38 | 50.80426 | -2.50482 | 10247 ft | 208 kts | 253° |
| 2026-04-28 19:39 | 50.80030 | -2.52673 | 10243 ft | 207 kts | 253° |
| 2026-04-28 19:39 | 50.79639 | -2.54863 | 10245 ft | 208 kts | 256° |
| 2026-04-28 19:39 | 50.79286 | -2.57081 | 10243 ft | 208 kts | 254° |
| 2026-04-28 19:39 | 50.78902 | -2.59248 | 10244 ft | 208 kts | 253° |
| 2026-04-28 19:40 | 50.78520 | -2.61450 | 10248 ft | 208 kts | 254° |
| 2026-04-28 19:40 | 50.78147 | -2.63649 | 10248 ft | 207 kts | 254° |
| 2026-04-28 19:40 | 50.77774 | -2.65854 | 10248 ft | 207 kts | 254° |
| 2026-04-28 19:40 | 50.77401 | -2.68049 | 10247 ft | 207 kts | 254° |
| 2026-04-28 19:41 | 50.77026 | -2.70249 | 10247 ft | 207 kts | 254° |
| 2026-04-28 19:41 | 50.76650 | -2.72449 | 10248 ft | 207 kts | 254° |
| 2026-04-28 19:41 | 50.76276 | -2.74640 | 10249 ft | 207 kts | 254° |
| 2026-04-28 19:41 | 50.75898 | -2.76852 | 10247 ft | 208 kts | 254° |
| 2026-04-28 19:42 | 50.75521 | -2.79052 | 10249 ft | 208 kts | 254° |
| 2026-04-28 19:42 | 50.75138 | -2.81286 | 10247 ft | 209 kts | 254° |
| 2026-04-28 19:42 | 50.74758 | -2.83501 | 10248 ft | 209 kts | 254° |
| 2026-04-28 19:42 | 50.74505 | -2.84976 | 10246 ft | 210 kts | 254° |
| 2026-04-28 19:43 | 50.74021 | -2.87790 | 10245 ft | 209 kts | 253° |
| 2026-04-28 19:43 | 50.73641 | -2.89994 | 10246 ft | 208 kts | 253° |
| 2026-04-28 19:43 | 50.73259 | -2.92206 | 10246 ft | 209 kts | 254° |
| 2026-04-28 19:43 | 50.72867 | -2.94472 | 10247 ft | 209 kts | 254° |
| 2026-04-28 19:44 | 50.72485 | -2.96685 | 10242 ft | 209 kts | 254° |
| 2026-04-28 19:44 | 50.72102 | -2.98895 | 10243 ft | 209 kts | 254° |
| 2026-04-28 19:44 | 50.71715 | -3.01129 | 10242 ft | 208 kts | 253° |
| 2026-04-28 19:44 | 50.71326 | -3.03367 | 10244 ft | 208 kts | 253° |
| 2026-04-28 19:45 | 50.70942 | -3.05565 | 10241 ft | 208 kts | 251° |
| 2026-04-28 19:45 | 50.70340 | -3.07619 | 10241 ft | 206 kts | 239° |
| 2026-04-28 19:45 | 50.69668 | -3.09623 | 10242 ft | 207 kts | 239° |
| 2026-04-28 19:45 | 50.68992 | -3.11671 | 10239 ft | 208 kts | 240° |
| 2026-04-28 19:46 | 50.68326 | -3.13689 | 10238 ft | 207 kts | 239° |
| 2026-04-28 19:46 | 50.67659 | -3.15702 | 10238 ft | 207 kts | 239° |
| 2026-04-28 19:46 | 50.67000 | -3.17689 | 10239 ft | 207 kts | 239° |
| 2026-04-28 19:46 | 50.66332 | -3.19703 | 10238 ft | 207 kts | 239° |
| 2026-04-28 19:47 | 50.65663 | -3.21720 | 10239 ft | 208 kts | 239° |
| 2026-04-28 19:47 | 50.64992 | -3.23738 | 10238 ft | 208 kts | 239° |
| 2026-04-28 19:47 | 50.64323 | -3.25750 | 10237 ft | 207 kts | 239° |
| 2026-04-28 19:47 | 50.63653 | -3.27762 | 10240 ft | 207 kts | 239° |
| 2026-04-28 19:48 | 50.62987 | -3.29764 | 10243 ft | 206 kts | 239° |
| 2026-04-28 19:48 | 50.62343 | -3.31695 | 10250 ft | 206 kts | 239° |
| 2026-04-28 19:48 | 50.61675 | -3.33697 | 10249 ft | 206 kts | 239° |
| 2026-04-28 19:48 | 50.61009 | -3.35691 | 10249 ft | 206 kts | 239° |
| 2026-04-28 19:49 | 50.60343 | -3.37687 | 10252 ft | 206 kts | 239° |
| 2026-04-28 19:49 | 50.59674 | -3.39685 | 10260 ft | 206 kts | 240° |
| 2026-04-28 19:49 | 50.59007 | -3.41679 | 10257 ft | 205 kts | 240° |
| 2026-04-28 19:49 | 50.58340 | -3.43670 | 10257 ft | 205 kts | 240° |
| 2026-04-28 19:50 | 50.57173 | -3.47734 | 10255 ft | 206 kts | 254° |
| 2026-04-28 19:50 | 50.56791 | -3.49898 | 10255 ft | 206 kts | 253° |
| 2026-04-28 19:50 | 50.56395 | -3.52058 | 10256 ft | 205 kts | 253° |
| 2026-04-28 19:51 | 50.55998 | -3.54221 | 10258 ft | 206 kts | 253° |
| 2026-04-28 19:51 | 50.55604 | -3.56375 | 10256 ft | 205 kts | 253° |
| 2026-04-28 19:51 | 50.55209 | -3.58533 | 10257 ft | 205 kts | 253° |
| 2026-04-28 19:51 | 50.54815 | -3.60679 | 10256 ft | 205 kts | 253° |
| 2026-04-28 19:52 | 50.54418 | -3.62838 | 10251 ft | 205 kts | 253° |
| 2026-04-28 19:52 | 50.54024 | -3.64984 | 10252 ft | 205 kts | 253° |
| 2026-04-28 19:52 | 50.53628 | -3.67136 | 10251 ft | 205 kts | 253° |
| 2026-04-28 19:52 | 50.53300 | -3.68916 | 10253 ft | 205 kts | 253° |
| 2026-04-28 19:53 | 50.52903 | -3.71068 | 10254 ft | 205 kts | 253° |
| 2026-04-28 19:53 | 50.52504 | -3.73217 | 10247 ft | 204 kts | 252° |
| 2026-04-28 19:53 | 50.52108 | -3.75367 | 10249 ft | 204 kts | 252° |
| 2026-04-28 19:53 | 50.51712 | -3.77508 | 10246 ft | 204 kts | 252° |
| 2026-04-28 19:54 | 50.51315 | -3.79648 | 10249 ft | 204 kts | 252° |
| 2026-04-28 19:54 | 50.50918 | -3.81789 | 10247 ft | 204 kts | 252° |
| 2026-04-28 19:54 | 50.50521 | -3.83923 | 10249 ft | 204 kts | 252° |
| 2026-04-28 19:54 | 50.50122 | -3.86066 | 10249 ft | 205 kts | 252° |
| 2026-04-28 19:55 | 50.49723 | -3.88212 | 10248 ft | 205 kts | 252° |
| 2026-04-28 19:55 | 50.49323 | -3.90358 | 10249 ft | 205 kts | 252° |
| 2026-04-28 19:55 | 50.48923 | -3.92500 | 10248 ft | 205 kts | 252° |
| 2026-04-28 19:55 | 50.48657 | -3.93925 | 10248 ft | 205 kts | 252° |
| 2026-04-28 19:56 | 50.48256 | -3.96072 | 10250 ft | 204 kts | 252° |
| 2026-04-28 19:56 | 50.47724 | -3.98909 | 10250 ft | 203 kts | 252° |
| 2026-04-28 19:56 | 50.47326 | -4.01036 | 10252 ft | 203 kts | 252° |
| 2026-04-28 19:56 | 50.47055 | -4.02477 | 10250 ft | 203 kts | 252° |
| 2026-04-28 19:57 | 50.46655 | -4.04608 | 10252 ft | 204 kts | 252° |
| 2026-04-28 19:57 | 50.46254 | -4.06740 | 10251 ft | 204 kts | 252° |
| 2026-04-28 19:57 | 50.45851 | -4.08877 | 10251 ft | 204 kts | 252° |
| 2026-04-28 19:57 | 50.45455 | -4.10981 | 10250 ft | 205 kts | 252° |
| 2026-04-28 19:58 | 50.45051 | -4.13121 | 10249 ft | 204 kts | 252° |
| 2026-04-28 19:58 | 50.44643 | -4.15279 | 10249 ft | 203 kts | 252° |
| 2026-04-28 19:58 | 50.44246 | -4.17377 | 10244 ft | 203 kts | 252° |
| 2026-04-28 19:58 | 50.43844 | -4.19505 | 10244 ft | 204 kts | 252° |
| 2026-04-28 19:59 | 50.43439 | -4.21640 | 10240 ft | 204 kts | 252° |
| 2026-04-28 19:59 | 50.43033 | -4.23775 | 10238 ft | 204 kts | 252° |
| 2026-04-28 19:59 | 50.42626 | -4.25917 | 10246 ft | 205 kts | 252° |
| 2026-04-28 19:59 | 50.42221 | -4.28049 | 10249 ft | 204 kts | 252° |
| 2026-04-28 20:00 | 50.41813 | -4.30192 | 10251 ft | 204 kts | 252° |
| 2026-04-28 20:00 | 50.41408 | -4.32322 | 10254 ft | 204 kts | 252° |
| 2026-04-28 20:00 | 50.41001 | -4.34452 | 10254 ft | 204 kts | 252° |
| 2026-04-28 20:00 | 50.40593 | -4.36582 | 10253 ft | 204 kts | 252° |
| 2026-04-28 20:01 | 50.40185 | -4.38715 | 10251 ft | 204 kts | 252° |
| 2026-04-28 20:01 | 50.39776 | -4.40851 | 10253 ft | 205 kts | 252° |
| 2026-04-28 20:01 | 50.39367 | -4.42986 | 10253 ft | 205 kts | 252° |
| 2026-04-28 20:01 | 50.38958 | -4.45118 | 10252 ft | 204 kts | 252° |
| 2026-04-28 20:02 | 50.38548 | -4.47247 | 10254 ft | 204 kts | 252° |
| 2026-04-28 20:02 | 50.38139 | -4.49376 | 10251 ft | 204 kts | 252° |
| 2026-04-28 20:02 | 50.37724 | -4.51536 | 10252 ft | 204 kts | 252° |
| 2026-04-28 20:02 | 50.37320 | -4.53623 | 10251 ft | 204 kts | 252° |
| 2026-04-28 20:03 | 50.36905 | -4.55775 | 10252 ft | 203 kts | 252° |
| 2026-04-28 20:03 | 50.36496 | -4.57890 | 10252 ft | 203 kts | 252° |
| 2026-04-28 20:03 | 50.36081 | -4.60038 | 10252 ft | 203 kts | 252° |
| 2026-04-28 20:03 | 50.35671 | -4.62156 | 10258 ft | 203 kts | 252° |
| 2026-04-28 20:04 | 50.35264 | -4.64246 | 10263 ft | 203 kts | 252° |
| 2026-04-28 20:04 | 50.34852 | -4.66377 | 10260 ft | 204 kts | 252° |
| 2026-04-28 20:04 | 50.34439 | -4.68503 | 10259 ft | 204 kts | 252° |
| 2026-04-28 20:04 | 50.34021 | -4.70655 | 10262 ft | 204 kts | 252° |
| 2026-04-28 20:05 | 50.33605 | -4.72785 | 10262 ft | 205 kts | 252° |
| 2026-04-28 20:05 | 50.33188 | -4.74923 | 10263 ft | 206 kts | 252° |
| 2026-04-28 20:05 | 50.32770 | -4.77065 | 10264 ft | 206 kts | 252° |
| 2026-04-28 20:05 | 50.32350 | -4.79217 | 10263 ft | 206 kts | 252° |
| 2026-04-28 20:06 | 50.31929 | -4.81366 | 10267 ft | 207 kts | 252° |
| 2026-04-28 20:06 | 50.31506 | -4.83524 | 10269 ft | 207 kts | 252° |
| 2026-04-28 20:06 | 50.31086 | -4.85672 | 10269 ft | 207 kts | 252° |
| 2026-04-28 20:06 | 50.30663 | -4.87827 | 10225 ft | 209 kts | 251° |
| 2026-04-28 20:07 | 50.30226 | -4.90047 | 10134 ft | 212 kts | 252° |
| 2026-04-28 20:07 | 50.29937 | -4.91514 | 10059 ft | 215 kts | 252° |
| 2026-04-28 20:07 | 50.29348 | -4.94510 | 9885 ft | 218 kts | 251° |
| 2026-04-28 20:07 | 50.28897 | -4.96796 | 9748 ft | 219 kts | 251° |
| 2026-04-28 20:08 | 50.28447 | -4.99080 | 9604 ft | 220 kts | 251° |
| 2026-04-28 20:08 | 50.27992 | -5.01379 | 9458 ft | 221 kts | 251° |
| 2026-04-28 20:08 | 50.27537 | -5.03678 | 9314 ft | 222 kts | 251° |
| 2026-04-28 20:08 | 50.27079 | -5.05989 | 9168 ft | 222 kts | 251° |
| 2026-04-28 20:09 | 50.26610 | -5.08357 | 9017 ft | 222 kts | 251° |
| 2026-04-28 20:09 | 50.26148 | -5.10680 | 8867 ft | 222 kts | 251° |
| 2026-04-28 20:09 | 50.26017 | -5.13013 | 8741 ft | 204 kts | 285° |
| 2026-04-28 20:09 | 50.26717 | -5.14752 | 8736 ft | 165 kts | 333° |
| 2026-04-28 20:10 | 50.27634 | -5.15088 | 8743 ft | 107 kts | 30° |
| 2026-04-28 20:10 | 50.27918 | -5.14437 | 8790 ft | 67 kts | 95° |
| 2026-04-28 20:10 | 50.27891 | -5.13609 | 8816 ft | 88 kts | 91° |
| 2026-04-28 20:10 | 50.27852 | -5.12499 | 8764 ft | 104 kts | 88° |
| 2026-04-28 20:11 | 50.27962 | -5.11355 | 8774 ft | 109 kts | 75° |
| 2026-04-28 20:11 | 50.28318 | -5.10282 | 8776 ft | 116 kts | 57° |
| 2026-04-28 20:11 | 50.28833 | -5.09266 | 8776 ft | 121 kts | 56° |
| 2026-04-28 20:11 | 50.29211 | -5.08567 | 8768 ft | 123 kts | 54° |
| 2026-04-28 20:12 | 50.29774 | -5.07559 | 8771 ft | 124 kts | 54° |
| 2026-04-28 20:12 | 50.30335 | -5.06573 | 8765 ft | 124 kts | 54° |
| 2026-04-28 20:12 | 50.30941 | -5.05522 | 8772 ft | 124 kts | 53° |
| 2026-04-28 20:12 | 50.31325 | -5.04857 | 8752 ft | 124 kts | 53° |
| 2026-04-28 20:13 | 50.32081 | -5.03447 | 8758 ft | 121 kts | 68° |
| 2026-04-28 20:13 | 50.32013 | -5.02195 | 8776 ft | 123 kts | 110° |
| 2026-04-28 20:13 | 50.31707 | -5.00941 | 8776 ft | 120 kts | 86° |
| 2026-04-28 20:13 | 50.32176 | -4.99881 | 8770 ft | 129 kts | 32° |
| 2026-04-28 20:14 | 50.33136 | -4.99988 | 8761 ft | 152 kts | 339° |
| 2026-04-28 20:14 | 50.33776 | -5.01364 | 8772 ft | 167 kts | 287° |
| 2026-04-28 20:14 | 50.33581 | -5.03178 | 8758 ft | 168 kts | 235° |
| 2026-04-28 20:14 | 50.32826 | -5.04538 | 8771 ft | 164 kts | 217° |
| 2026-04-28 20:15 | 50.31905 | -5.05657 | 8758 ft | 163 kts | 211° |
| 2026-04-28 20:15 | 50.31089 | -5.06944 | 8758 ft | 167 kts | 224° |
| 2026-04-28 20:15 | 50.30326 | -5.08322 | 8766 ft | 168 kts | 223° |
| 2026-04-28 20:15 | 50.29553 | -5.09686 | 8763 ft | 168 kts | 223° |
| 2026-04-28 20:16 | 50.28770 | -5.11046 | 8772 ft | 168 kts | 223° |
| 2026-04-28 20:16 | 50.27988 | -5.12405 | 8767 ft | 168 kts | 224° |
| 2026-04-28 20:16 | 50.27441 | -5.14049 | 8756 ft | 171 kts | 233° |
| 2026-04-28 20:16 | 50.26540 | -5.15048 | 8738 ft | 154 kts | 181° |
| 2026-04-28 20:17 | 50.25491 | -5.15202 | 8728 ft | 152 kts | 184° |
| 2026-04-28 20:17 | 50.24631 | -5.16231 | 8729 ft | 165 kts | 238° |
| 2026-04-28 20:17 | 50.24518 | -5.17948 | 8730 ft | 160 kts | 293° |
| 2026-04-28 20:17 | 50.25221 | -5.19150 | 8731 ft | 138 kts | 351° |
| 2026-04-28 20:18 | 50.26051 | -5.18970 | 8737 ft | 112 kts | 47° |
| 2026-04-28 20:18 | 50.26393 | -5.18375 | 8744 ft | 109 kts | 57° |
| 2026-04-28 20:18 | 50.26996 | -5.17133 | 8740 ft | 108 kts | 58° |
| 2026-04-28 20:18 | 50.27297 | -5.16499 | 8739 ft | 107 kts | 60° |
| 2026-04-28 20:19 | 50.27706 | -5.15539 | 8764 ft | 106 kts | 62° |
| 2026-04-28 20:19 | 50.28085 | -5.14553 | 8761 ft | 105 kts | 68° |
| 2026-04-28 20:19 | 50.28397 | -5.13522 | 8765 ft | 105 kts | 68° |
| 2026-04-28 20:19 | 50.28837 | -5.12599 | 8766 ft | 108 kts | 52° |
| 2026-04-28 20:20 | 50.29354 | -5.11731 | 8761 ft | 108 kts | 53° |
| 2026-04-28 20:20 | 50.29861 | -5.10863 | 8771 ft | 108 kts | 54° |
| 2026-04-28 20:20 | 50.30375 | -5.09978 | 8769 ft | 109 kts | 54° |
| 2026-04-28 20:20 | 50.30883 | -5.09101 | 8764 ft | 108 kts | 54° |
| 2026-04-28 20:21 | 50.31384 | -5.08234 | 8761 ft | 107 kts | 53° |
| 2026-04-28 20:21 | 50.31883 | -5.07369 | 8763 ft | 108 kts | 53° |
| 2026-04-28 20:21 | 50.32385 | -5.06498 | 8761 ft | 107 kts | 53° |
| 2026-04-28 20:21 | 50.32885 | -5.05634 | 8761 ft | 107 kts | 53° |
| 2026-04-28 20:22 | 50.33386 | -5.04773 | 8761 ft | 107 kts | 55° |
| 2026-04-28 20:22 | 50.33473 | -5.03673 | 8767 ft | 104 kts | 105° |
| 2026-04-28 20:22 | 50.33218 | -5.02600 | 8773 ft | 103 kts | 97° |
| 2026-04-28 20:22 | 50.33508 | -5.01661 | 8777 ft | 109 kts | 35° |
| 2026-04-28 20:23 | 50.34299 | -5.01794 | 8768 ft | 132 kts | 334° |
| 2026-04-28 20:23 | 50.34726 | -5.03122 | 8778 ft | 148 kts | 272° |
| 2026-04-28 20:23 | 50.34378 | -5.04626 | 8773 ft | 146 kts | 235° |
| 2026-04-28 20:23 | 50.33797 | -5.05948 | 8776 ft | 145 kts | 226° |
| 2026-04-28 20:24 | 50.33047 | -5.07181 | 8771 ft | 143 kts | 218° |
| 2026-04-28 20:24 | 50.32366 | -5.08293 | 8769 ft | 145 kts | 221° |
| 2026-04-28 20:24 | 50.31686 | -5.09455 | 8777 ft | 145 kts | 222° |
| 2026-04-28 20:24 | 50.31006 | -5.10633 | 8762 ft | 145 kts | 222° |
| 2026-04-28 20:25 | 50.30315 | -5.11833 | 8775 ft | 148 kts | 221° |
| 2026-04-28 20:25 | 50.29624 | -5.13034 | 8769 ft | 148 kts | 222° |
| 2026-04-28 20:25 | 50.28983 | -5.14310 | 8768 ft | 149 kts | 221° |
| 2026-04-28 20:25 | 50.28084 | -5.15079 | 8768 ft | 140 kts | 193° |
| 2026-04-28 20:26 | 50.27219 | -5.15766 | 8733 ft | 148 kts | 216° |
| 2026-04-28 20:26 | 50.26864 | -5.16732 | 8734 ft | 154 kts | 258° |
| 2026-04-28 20:26 | 50.27093 | -5.18290 | 8734 ft | 143 kts | 319° |
| 2026-04-28 20:26 | 50.27893 | -5.18827 | 8736 ft | 116 kts | 20° |
| 2026-04-28 20:27 | 50.28470 | -5.18169 | 8766 ft | 101 kts | 58° |
| 2026-04-28 20:27 | 50.28899 | -5.17286 | 8768 ft | 102 kts | 60° |
| 2026-04-28 20:27 | 50.29273 | -5.16343 | 8761 ft | 102 kts | 63° |
| 2026-04-28 20:27 | 50.29655 | -5.15334 | 8766 ft | 102 kts | 65° |
| 2026-04-28 20:28 | 50.29929 | -5.14366 | 8770 ft | 103 kts | 62° |
| 2026-04-28 20:28 | 50.30406 | -5.13502 | 8775 ft | 105 kts | 55° |
| 2026-04-28 20:28 | 50.30893 | -5.12631 | 8756 ft | 107 kts | 54° |
| 2026-04-28 20:28 | 50.31386 | -5.11764 | 8761 ft | 107 kts | 54° |
| 2026-04-28 20:29 | 50.31882 | -5.10894 | 8749 ft | 106 kts | 54° |
| 2026-04-28 20:29 | 50.32377 | -5.10030 | 8760 ft | 106 kts | 54° |
| 2026-04-28 20:29 | 50.32897 | -5.09122 | 8762 ft | 106 kts | 54° |
| 2026-04-28 20:29 | 50.33394 | -5.08255 | 8762 ft | 106 kts | 54° |
| 2026-04-28 20:30 | 50.33883 | -5.07400 | 8761 ft | 105 kts | 54° |
| 2026-04-28 20:30 | 50.34403 | -5.06510 | 8761 ft | 106 kts | 53° |
| 2026-04-28 20:30 | 50.34774 | -5.05578 | 8771 ft | 101 kts | 86° |
| 2026-04-28 20:30 | 50.34569 | -5.04479 | 8770 ft | 104 kts | 104° |
| 2026-04-28 20:31 | 50.34393 | -5.03398 | 8773 ft | 101 kts | 79° |
| 2026-04-28 20:31 | 50.34924 | -5.02678 | 8781 ft | 115 kts | 15° |
| 2026-04-28 20:31 | 50.35700 | -5.03258 | 8768 ft | 141 kts | 314° |
| 2026-04-28 20:31 | 50.35878 | -5.04789 | 8775 ft | 149 kts | 252° |
| 2026-04-28 20:32 | 50.35434 | -5.06248 | 8769 ft | 148 kts | 237° |
| 2026-04-28 20:32 | 50.34825 | -5.07609 | 8775 ft | 146 kts | 221° |
| 2026-04-28 20:32 | 50.34134 | -5.08757 | 8760 ft | 146 kts | 221° |
| 2026-04-28 20:32 | 50.33443 | -5.09948 | 8775 ft | 146 kts | 222° |
| 2026-04-28 20:33 | 50.32750 | -5.11151 | 8775 ft | 146 kts | 222° |
| 2026-04-28 20:33 | 50.32070 | -5.12333 | 8777 ft | 147 kts | 222° |
| 2026-04-28 20:33 | 50.31590 | -5.13168 | 8776 ft | 147 kts | 222° |
| 2026-04-28 20:33 | 50.30898 | -5.14371 | 8776 ft | 148 kts | 222° |
| 2026-04-28 20:34 | 50.30175 | -5.15552 | 8759 ft | 144 kts | 200° |
| 2026-04-28 20:34 | 50.29249 | -5.16096 | 8765 ft | 139 kts | 189° |
| 2026-04-28 20:34 | 50.28398 | -5.16833 | 8758 ft | 150 kts | 226° |
| 2026-04-28 20:34 | 50.28155 | -5.18416 | 8744 ft | 151 kts | 287° |
| 2026-04-28 20:35 | 50.28731 | -5.19589 | 8751 ft | 131 kts | 348° |
| 2026-04-28 20:35 | 50.29505 | -5.19480 | 8761 ft | 104 kts | 47° |
| 2026-04-28 20:35 | 50.29985 | -5.18638 | 8767 ft | 103 kts | 56° |
| 2026-04-28 20:35 | 50.30414 | -5.17745 | 8765 ft | 103 kts | 59° |
| 2026-04-28 20:36 | 50.30857 | -5.16780 | 8759 ft | 102 kts | 59° |
| 2026-04-28 20:36 | 50.31277 | -5.15868 | 8760 ft | 103 kts | 57° |
| 2026-04-28 20:36 | 50.31739 | -5.14921 | 8763 ft | 105 kts | 58° |
| 2026-04-28 20:36 | 50.32164 | -5.14049 | 8765 ft | 105 kts | 57° |
| 2026-04-28 20:37 | 50.32635 | -5.13153 | 8765 ft | 105 kts | 55° |
| 2026-04-28 20:37 | 50.33111 | -5.12290 | 8763 ft | 106 kts | 54° |
| 2026-04-28 20:37 | 50.33617 | -5.11392 | 8763 ft | 105 kts | 54° |
| 2026-04-28 20:37 | 50.33951 | -5.10805 | 8763 ft | 105 kts | 54° |
| 2026-04-28 20:38 | 50.34439 | -5.09952 | 8765 ft | 105 kts | 54° |
| 2026-04-28 20:38 | 50.34949 | -5.09064 | 8754 ft | 105 kts | 54° |
| 2026-04-28 20:38 | 50.35294 | -5.08463 | 8766 ft | 106 kts | 54° |
| 2026-04-28 20:38 | 50.35792 | -5.07597 | 8765 ft | 105 kts | 53° |
| 2026-04-28 20:39 | 50.36384 | -5.06595 | 8767 ft | 105 kts | 53° |
| 2026-04-28 20:39 | 50.36831 | -5.05834 | 8765 ft | 105 kts | 53° |
| 2026-04-28 20:39 | 50.37296 | -5.04958 | 8757 ft | 103 kts | 69° |
| 2026-04-28 20:39 | 50.37211 | -5.03875 | 8775 ft | 104 kts | 104° |
| 2026-04-28 20:40 | 50.37066 | -5.02792 | 8776 ft | 101 kts | 75° |
| 2026-04-28 20:40 | 50.37630 | -5.02130 | 8777 ft | 116 kts | 12° |
| 2026-04-28 20:40 | 50.38378 | -5.02778 | 8775 ft | 139 kts | 310° |
| 2026-04-28 20:40 | 50.38491 | -5.04276 | 8767 ft | 146 kts | 248° |
| 2026-04-28 20:41 | 50.37955 | -5.05610 | 8776 ft | 145 kts | 230° |
| 2026-04-28 20:41 | 50.37375 | -5.06894 | 8773 ft | 146 kts | 237° |
| 2026-04-28 20:41 | 50.36751 | -5.08118 | 8760 ft | 141 kts | 206° |
| 2026-04-28 20:41 | 50.35996 | -5.09112 | 8764 ft | 143 kts | 218° |
| 2026-04-28 20:42 | 50.35300 | -5.10236 | 8771 ft | 144 kts | 221° |
| 2026-04-28 20:42 | 50.34617 | -5.11398 | 8773 ft | 145 kts | 222° |
| 2026-04-28 20:42 | 50.33939 | -5.12571 | 8773 ft | 146 kts | 222° |
| 2026-04-28 20:42 | 50.33256 | -5.13755 | 8772 ft | 146 kts | 222° |
| 2026-04-28 20:43 | 50.32573 | -5.14939 | 8771 ft | 146 kts | 222° |
| 2026-04-28 20:43 | 50.31921 | -5.16199 | 8754 ft | 151 kts | 243° |
| 2026-04-28 20:43 | 50.31933 | -5.17780 | 8751 ft | 146 kts | 304° |
| 2026-04-28 20:43 | 50.32657 | -5.18629 | 8760 ft | 123 kts | 5° |
| 2026-04-28 20:44 | 50.33308 | -5.18163 | 8773 ft | 102 kts | 66° |
| 2026-04-28 20:44 | 50.33347 | -5.17061 | 8773 ft | 102 kts | 89° |
| 2026-04-28 20:44 | 50.33428 | -5.15948 | 8732 ft | 106 kts | 76° |
| 2026-04-28 20:44 | 50.33832 | -5.14951 | 8640 ft | 115 kts | 52° |
| 2026-04-28 20:45 | 50.34431 | -5.13931 | 8497 ft | 124 kts | 51° |
| 2026-04-28 20:45 | 50.35030 | -5.12993 | 8363 ft | 129 kts | 49° |
| 2026-04-28 20:45 | 50.35692 | -5.12007 | 8219 ft | 134 kts | 49° |
| 2026-04-28 20:45 | 50.36383 | -5.10998 | 8066 ft | 137 kts | 48° |
| 2026-04-28 20:46 | 50.37092 | -5.09974 | 7914 ft | 139 kts | 47° |
| 2026-04-28 20:46 | 50.37807 | -5.08940 | 7761 ft | 141 kts | 47° |
| 2026-04-28 20:46 | 50.38529 | -5.07898 | 7608 ft | 142 kts | 47° |
| 2026-04-28 20:46 | 50.39257 | -5.06846 | 7449 ft | 143 kts | 47° |
| 2026-04-28 20:47 | 50.39990 | -5.05785 | 7291 ft | 143 kts | 47° |
| 2026-04-28 20:47 | 50.40723 | -5.04725 | 7134 ft | 144 kts | 47° |
| 2026-04-28 20:47 | 50.41459 | -5.03661 | 6974 ft | 144 kts | 47° |
| 2026-04-28 20:47 | 50.42197 | -5.02593 | 6815 ft | 145 kts | 47° |
| 2026-04-28 20:48 | 50.42936 | -5.01523 | 6648 ft | 145 kts | 47° |
| 2026-04-28 20:48 | 50.43675 | -5.00452 | 6489 ft | 144 kts | 47° |
| 2026-04-28 20:48 | 50.44332 | -4.99514 | 6346 ft | 144 kts | 43° |
| 2026-04-28 20:48 | 50.45311 | -4.99171 | 6284 ft | 154 kts | 356° |
| 2026-04-28 20:49 | 50.46182 | -5.00178 | 6245 ft | 165 kts | 306° |
| 2026-04-28 20:49 | 50.46347 | -5.01936 | 6179 ft | 168 kts | 255° |
| 2026-04-28 20:49 | 50.45783 | -5.03484 | 6142 ft | 162 kts | 229° |
| 2026-04-28 20:49 | 50.45169 | -5.04947 | 6084 ft | 161 kts | 241° |
| 2026-04-28 20:50 | 50.44883 | -5.06637 | 6025 ft | 161 kts | 271° |
| 2026-04-28 20:50 | 50.45005 | -5.08372 | 5980 ft | 159 kts | 282° |
| 2026-04-28 20:50 | 50.45175 | -5.10081 | 5932 ft | 158 kts | 281° |
| 2026-04-28 20:50 | 50.45333 | -5.11785 | 5879 ft | 158 kts | 281° |
| 2026-04-28 20:51 | 50.45484 | -5.13490 | 5828 ft | 157 kts | 281° |
| 2026-04-28 20:51 | 50.45634 | -5.15189 | 5775 ft | 157 kts | 280° |
| 2026-04-28 20:51 | 50.45784 | -5.16898 | 5732 ft | 161 kts | 280° |
| 2026-04-28 20:51 | 50.45890 | -5.18083 | 5533 ft | 169 kts | 281° |
| 2026-04-28 20:52 | 50.46109 | -5.20574 | 5062 ft | 175 kts | 281° |
| 2026-04-28 20:52 | 50.46287 | -5.22466 | 4699 ft | 176 kts | 286° |
| 2026-04-28 20:52 | 50.46919 | -5.24016 | 4327 ft | 166 kts | 332° |
| 2026-04-28 20:52 | 50.47955 | -5.24500 | 3968 ft | 151 kts | 10° |
| 2026-04-28 20:53 | 50.49469 | -5.22848 | 3335 ft | 129 kts | 68° |
| 2026-04-28 20:53 | 50.49761 | -5.21599 | 3197 ft | 117 kts | 70° |
| 2026-04-28 20:53 | 50.50036 | -5.20453 | 3073 ft | 108 kts | 69° |
| 2026-04-28 20:54 | 50.50290 | -5.19394 | 2960 ft | 100 kts | 69° |
| 2026-04-28 20:54 | 50.50511 | -5.18405 | 2853 ft | 92 kts | 75° |
| 2026-04-28 20:54 | 50.50550 | -5.17431 | 2769 ft | 86 kts | 88° |
| 2026-04-28 20:54 | 50.50374 | -5.16531 | 2624 ft | 92 kts | 110° |
| 2026-04-28 20:55 | 50.50083 | -5.15666 | 2480 ft | 90 kts | 107° |
| 2026-04-28 20:55 | 50.49776 | -5.14782 | 2354 ft | 94 kts | 107° |
| 2026-04-28 20:55 | 50.49458 | -5.13904 | 2218 ft | 91 kts | 107° |
| 2026-04-28 20:55 | 50.49152 | -5.13060 | 2102 ft | 87 kts | 107° |
| 2026-04-28 20:56 | 50.48857 | -5.12275 | 1983 ft | 77 kts | 106° |
| 2026-04-28 20:56 | 50.48688 | -5.11811 | 1915 ft | 72 kts | 104° |
| 2026-04-28 20:56 | 50.48430 | -5.11123 | 1822 ft | 74 kts | 105° |
| 2026-04-28 20:56 | 50.48167 | -5.10422 | 1720 ft | 76 kts | 105° |
| 2026-04-28 20:57 | 50.47897 | -5.09704 | 1614 ft | 77 kts | 105° |
| 2026-04-28 20:57 | 50.47623 | -5.08973 | 1500 ft | 78 kts | 105° |
| 2026-04-28 20:57 | 50.47347 | -5.08241 | 1398 ft | 79 kts | 106° |
| 2026-04-28 20:57 | 50.47114 | -5.07620 | 1309 ft | 79 kts | 107° |
| 2026-04-28 20:58 | 50.46833 | -5.06877 | 1197 ft | 77 kts | 107° |
| 2026-04-28 20:58 | 50.46569 | -5.06173 | 1089 ft | 73 kts | 111° |
| 2026-04-28 20:58 | 50.46313 | -5.05491 | 997 ft | 73 kts | 111° |
| 2026-04-28 20:58 | 50.46056 | -5.04803 | 894 ft | 74 kts | 111° |
| 2026-04-28 20:59 | 50.45788 | -5.04090 | 799 ft | 80 kts | 110° |
| 2026-04-28 20:59 | 50.45504 | -5.03316 | 691 ft | 84 kts | 111° |
| 2026-04-28 20:59 | 50.45202 | -5.02522 | 637 ft | 84 kts | 113° |
| 2026-04-28 20:59 | 50.44924 | -5.01761 | 515 ft | 81 kts | 114° |
| 2026-04-28 21:00 | 50.44634 | -5.01005 | 332 ft | 79 kts | 117° |
| 2026-04-28 21:00 | 50.44409 | -5.00394 | 324 ft | 38 kts | 118° |
| 2026-04-28 21:00 | 50.44143 | -4.99754 | 858 ft | 89 kts | 118° |
| 2026-04-28 21:00 | 50.43860 | -4.98948 | 419 ft | 89 kts | 115° |
| 2026-04-28 21:01 | 50.43633 | -4.98331 | 378 ft | 45 kts | 120° |
| 2026-04-28 21:01 | 50.43504 | -4.98007 | 388 ft | 26 kts | 121° |
| 2026-04-28 21:01 | 50.43502 | -4.97856 | 390 ft | 13 kts | 7° |
| 2026-04-28 21:01 | 50.43598 | -4.97859 | 386 ft | 16 kts | 342° |
| 2026-04-28 21:02 | 50.43705 | -4.98002 | 382 ft | 26 kts | 292° |
| 2026-04-28 21:02 | 50.43802 | -4.98269 | 375 ft | 27 kts | 300° |
| 2026-04-28 21:02 | 50.43897 | -4.98517 | 369 ft | 26 kts | 301° |
| 2026-04-28 21:02 | 50.43988 | -4.98760 | 369 ft | 26 kts | 301° |
| 2026-04-28 21:03 | 50.44079 | -4.99009 | 361 ft | 26 kts | 297° |
| 2026-04-28 21:03 | 50.44171 | -4.99244 | 351 ft | 25 kts | 300° |
| 2026-04-28 21:03 | 50.44261 | -4.99480 | 345 ft | 25 kts | 302° |
| 2026-04-28 21:03 | 50.44347 | -4.99717 | 339 ft | 25 kts | 301° |
| 2026-04-28 21:04 | 50.44430 | -4.99951 | 334 ft | 24 kts | 296° |
| 2026-04-28 21:04 | 50.44521 | -5.00171 | 328 ft | 22 kts | 301° |
| 2026-04-28 21:04 | 50.44571 | -5.00242 | 324 ft | 5 kts | 11° |
| 2026-04-28 21:04 | 50.44611 | -5.00235 | 325 ft | 6 kts | 1° |
| 2026-04-28 21:05 | 50.44613 | -5.00235 | 325 ft | 0 kts | 1° |